Accueil
METAR-TAF:

METAR-TAF

Aéroports :

Aéroport de Nîmes–Alès–Camargue–Cévennes, Garons

Nîmes, France

latitude: 43-45N, longitude: 004-25E, altitude: 94 m

Observation

Le bulletin a été fait il y a 25 minutes, à 00:00 UTC
Vent calme
Température 20°C
Humidité 83%
Pression 1018 hPa
Visibilité 10 km ou plus

METAR: LFTW 210000Z AUTO 00000KT 9999 NCD 20/17 Q1018

Heure: 02:25 (00:25 UTC)

Prévision

Le bulletin a été fait il y a 10 heures et 25 minutes, à 14:00 UTC
Prévision valable du 20 à 15 UTC au 21 à 15 UTC
Vent 10 kt de sud
Visibilité 10 km ou plus
pas de nuages en-dessous de 1500 mètres et pas de cumulonimbus.
Evoluant progressivement
du 20 à 20 UTC au 20 à 22 UTC
Vent 3 kt de direction variable
Evoluant progressivement
du 21 à 13 UTC au 21 à 15 UTC
Vent 10 kt de nord

TAF: LFTW 201400Z 2015/2115 18010KT CAVOK BECMG 2020/2022 VRB03KT BECMG 2113/2115 35010KT

Observations et prévisions météorologiques de plus de 4000 aéroports (messages METAR et TAF).

Les stations disponibles sont représentées par des disques jaunes et rouges sur la carte.

Passer la souris dessus pour voir le nom de la station.

Cliquer dessus pour voir les observations et prévisions météorologiques.

Pour changer de carte: cliquez sur les boutons verts avec une croix noire pour zoomer, sur le bouton vert avec un tiret pour effectuer un zoom arrière, ou sur les flèches vertes pour les cartes adjacentes.


METAR-TAF: